Time;durP1;ratioP1;P1;durP2;ratioP2;P2;SDS_P1;SDS_P2;PMS_P1;PMS_P2;Temp;Humidity;BMP_temperature;BMP_pressure;BME280_temperature;BME280_humidity;BME280_pressure;Samples;Min_cycle;Max_cycle;Signal;HPM_P1;HPM_P2
2024/03/23 00:01:43;;;;;;;22.00;4.90;;;15.80;81.20;;;;;;5007460;28;20125;-56
2024/03/23 00:04:09;;;;;;;23.25;5.95;;;15.90;81.30;;;;;;5008233;28;20044;-56
2024/03/23 00:06:36;;;;;;;29.40;5.80;;;15.80;81.30;;;;;;5026115;28;20050;-56
2024/03/23 00:09:03;;;;;;;19.42;5.50;;;15.80;81.40;;;;;;4991757;28;20033;-55
2024/03/23 00:11:29;;;;;;;15.88;4.95;;;15.80;81.50;;;;;;5025776;28;20030;-56
2024/03/23 00:13:57;;;;;;;20.23;5.30;;;15.80;81.60;;;;;;5007748;28;20026;-56
2024/03/23 00:16:25;;;;;;;29.98;5.72;;;15.70;81.70;;;;;;5025661;28;20475;-56
2024/03/23 00:18:52;;;;;;;22.48;5.35;;;15.70;81.90;;;;;;5025418;28;20060;-56
2024/03/23 00:21:19;;;;;;;33.72;5.20;;;15.70;82.00;;;;;;5025444;28;20086;-56
2024/03/23 00:23:45;;;;;;;20.45;4.90;;;15.60;82.10;;;;;;5007441;28;20451;-56
2024/03/23 00:26:12;;;;;;;23.70;5.50;;;15.60;82.20;;;;;;5007144;28;20465;-58
2024/03/23 00:28:38;;;;;;;23.23;5.30;;;15.60;82.30;;;;;;5024467;28;20409;-57
2024/03/23 00:31:05;;;;;;;17.00;4.85;;;15.60;82.30;;;;;;5024630;28;20116;-58
2024/03/23 00:33:31;;;;;;;13.48;5.25;;;15.50;82.40;;;;;;5025298;28;20052;-58
2024/03/23 00:35:58;;;;;;;19.50;4.80;;;15.50;82.40;;;;;;5025724;28;20086;-58
2024/03/23 00:38:25;;;;;;;21.42;4.78;;;15.50;82.40;;;;;;5025730;28;20045;-58
2024/03/23 00:40:52;;;;;;;17.40;4.65;;;15.50;82.50;;;;;;5007147;28;20070;-58
2024/03/23 00:43:18;;;;;;;17.40;4.03;;;15.50;82.60;;;;;;5007362;28;20040;-58
2024/03/23 00:45:47;;;;;;;19.77;4.88;;;15.50;82.60;;;;;;5007732;28;20062;-57
2024/03/23 00:48:14;;;;;;;16.02;4.30;;;15.40;82.60;;;;;;5025641;28;20026;-58
2024/03/23 00:50:41;;;;;;;14.60;4.63;;;15.40;82.60;;;;;;5025011;28;20030;-58
2024/03/23 00:53:08;;;;;;;17.92;4.82;;;15.40;82.60;;;;;;5007512;28;20129;-58
2024/03/23 00:55:34;;;;;;;17.10;4.22;;;15.40;82.70;;;;;;5025510;28;20030;-58
2024/03/23 00:57:59;;;;;;;18.02;4.03;;;15.40;82.70;;;;;;5007839;28;20034;-58
2024/03/23 01:00:25;;;;;;;16.30;3.60;;;15.40;82.70;;;;;;4991637;28;20030;-57
2024/03/23 01:02:50;;;;;;;19.88;4.82;;;15.30;82.70;;;;;;5025347;28;20030;-58
2024/03/23 01:05:16;;;;;;;17.23;4.25;;;15.30;82.70;;;;;;4991220;28;20464;-58
2024/03/23 01:07:42;;;;;;;8.60;3.50;;;15.30;82.80;;;;;;5007592;28;20022;-57
2024/03/23 01:10:07;;;;;;;17.90;4.18;;;15.30;82.70;;;;;;5007222;28;20024;-57
2024/03/23 01:12:33;;;;;;;12.38;3.67;;;15.30;82.60;;;;;;5025283;28;20137;-57
2024/03/23 01:14:59;;;;;;;11.00;3.42;;;15.30;82.60;;;;;;4991061;28;20106;-58
2024/03/23 01:17:24;;;;;;;12.95;3.45;;;15.30;82.70;;;;;;5007339;28;20030;-58
2024/03/23 01:19:50;;;;;;;15.50;3.50;;;15.30;82.80;;;;;;4991270;28;20108;-57
2024/03/23 01:22:15;;;;;;;14.18;3.70;;;15.30;82.60;;;;;;5007244;28;20034;-58
2024/03/23 01:24:41;;;;;;;10.25;3.55;;;15.30;82.70;;;;;;5023958;28;20030;-58
2024/03/23 01:27:07;;;;;;;12.27;3.38;;;15.30;82.70;;;;;;5007178;28;20106;-58
2024/03/23 01:29:32;;;;;;;17.20;3.38;;;15.30;82.70;;;;;;4974432;28;20022;-58
2024/03/23 01:31:58;;;;;;;14.70;3.55;;;15.30;82.70;;;;;;5007031;28;20029;-58
2024/03/23 01:34:24;;;;;;;12.50;3.30;;;15.30;82.80;;;;;;5024651;28;20033;-58
2024/03/23 01:36:50;;;;;;;15.48;3.45;;;15.20;82.70;;;;;;5024674;28;20021;-58
2024/03/23 01:39:16;;;;;;;10.13;3.60;;;15.20;82.70;;;;;;4990787;28;20030;-58
2024/03/23 01:41:42;;;;;;;10.35;3.20;;;15.20;82.70;;;;;;5006716;28;20120;-58
2024/03/23 01:44:08;;;;;;;9.48;3.28;;;15.20;82.70;;;;;;5024038;28;20025;-57
2024/03/23 01:46:43;;;;;;;14.73;3.72;;;15.20;82.70;;;;;;5024533;28;20109;-57
2024/03/23 01:49:09;;;;;;;11.10;3.23;;;15.20;82.80;;;;;;4974230;28;20079;-58
2024/03/23 01:51:35;;;;;;;11.82;3.20;;;15.20;82.80;;;;;;5022359;28;20736;-58
2024/03/23 01:54:03;;;;;;;8.52;2.92;;;15.10;82.90;;;;;;4999017;28;20057;-58
2024/03/23 01:56:35;;;;;;;12.27;3.40;;;15.10;82.80;;;;;;4974313;28;20030;-58
2024/03/23 01:59:07;;;;;;;9.43;3.00;;;15.10;82.90;;;;;;5007500;28;20033;-58
2024/03/23 02:01:34;;;;;;;11.73;3.08;;;15.10;83.00;;;;;;4990915;28;20335;-57
2024/03/23 02:04:00;;;;;;;9.20;3.70;;;15.10;82.90;;;;;;4989607;28;20163;-58
2024/03/23 02:06:25;;;;;;;11.27;2.92;;;15.10;82.90;;;;;;5005970;28;20101;-58
2024/03/23 02:08:51;;;;;;;10.45;3.40;;;15.10;82.90;;;;;;4990330;28;20426;-58
2024/03/23 02:11:17;;;;;;;15.13;3.13;;;15.10;82.90;;;;;;4989331;28;20108;-57
2024/03/23 02:13:42;;;;;;;12.13;2.92;;;15.10;83.00;;;;;;5005169;28;20041;-58
2024/03/23 02:16:08;;;;;;;8.70;2.97;;;15.10;83.00;;;;;;5024071;28;20045;-58
2024/03/23 02:18:34;;;;;;;8.93;2.90;;;15.10;83.00;;;;;;4990234;28;20140;-57
2024/03/23 02:21:00;;;;;;;9.07;2.78;;;15.10;82.90;;;;;;5005987;28;20098;-57
2024/03/23 02:23:25;;;;;;;8.27;2.95;;;15.10;83.00;;;;;;5006418;28;20093;-58
2024/03/23 02:25:51;;;;;;;7.43;2.67;;;15.00;83.00;;;;;;5006137;28;20025;-57
2024/03/23 02:28:17;;;;;;;11.23;3.05;;;15.10;82.90;;;;;;5003864;28;20025;-58
2024/03/23 02:30:43;;;;;;;10.38;3.00;;;15.00;82.90;;;;;;5009383;28;20045;-57
2024/03/23 02:33:08;;;;;;;8.68;2.70;;;15.00;83.00;;;;;;5022509;28;20029;-57
2024/03/23 02:35:34;;;;;;;7.88;3.10;;;15.00;83.00;;;;;;5006555;28;20041;-58
2024/03/23 02:37:59;;;;;;;10.32;3.00;;;15.00;83.10;;;;;;5006893;28;20033;-58
2024/03/23 02:40:25;;;;;;;8.43;2.53;;;15.00;83.10;;;;;;5021206;28;20037;-58
2024/03/23 02:42:51;;;;;;;10.60;2.50;;;15.00;82.90;;;;;;5007983;28;20053;-58
2024/03/23 02:45:17;;;;;;;5.90;2.03;;;15.00;82.70;;;;;;5009453;28;20021;-57
2024/03/23 02:47:42;;;;;;;8.40;2.90;;;15.00;82.60;;;;;;5009329;28;20372;-58
2024/03/23 02:50:09;;;;;;;7.45;2.47;;;15.00;82.70;;;;;;5021024;28;20093;-57
2024/03/23 02:52:35;;;;;;;6.20;2.45;;;15.00;82.70;;;;;;5020629;28;20045;-58
2024/03/23 02:55:01;;;;;;;5.00;2.20;;;15.00;82.80;;;;;;5042435;28;20052;-58
2024/03/23 02:57:27;;;;;;;8.93;2.35;;;15.00;82.90;;;;;;5025579;28;20035;-58
2024/03/23 02:59:53;;;;;;;8.43;2.53;;;15.00;82.80;;;;;;5023586;28;20060;-58
2024/03/23 03:02:19;;;;;;;6.47;2.55;;;14.90;82.70;;;;;;4989578;28;20058;-58
2024/03/23 03:04:45;;;;;;;5.32;2.28;;;14.90;82.70;;;;;;5005996;28;20021;-57
2024/03/23 03:07:10;;;;;;;5.78;2.38;;;15.00;82.90;;;;;;5006215;28;20053;-58
2024/03/23 03:09:38;;;;;;;7.65;2.45;;;14.90;82.80;;;;;;4988965;28;20034;-57
2024/03/23 03:12:07;;;;;;;8.40;2.45;;;14.90;82.80;;;;;;5023836;28;20030;-57
2024/03/23 03:14:33;;;;;;;7.03;2.17;;;14.90;82.90;;;;;;5027163;28;20034;-57
2024/03/23 03:16:59;;;;;;;6.45;2.20;;;14.90;82.90;;;;;;5009461;28;20038;-57
2024/03/23 03:19:24;;;;;;;8.05;2.83;;;14.90;82.90;;;;;;5025356;28;20057;-58
2024/03/23 03:21:50;;;;;;;6.78;2.50;;;14.90;83.00;;;;;;5026749;28;20088;-57
2024/03/23 03:24:16;;;;;;;6.28;2.40;;;14.90;83.00;;;;;;4993037;28;20022;-57
2024/03/23 03:26:42;;;;;;;5.72;2.13;;;14.90;83.00;;;;;;5009212;28;20061;-58
2024/03/23 03:29:08;;;;;;;6.35;2.42;;;14.90;83.00;;;;;;5009168;28;20033;-58
2024/03/23 03:31:33;;;;;;;4.88;1.98;;;14.90;82.90;;;;;;5026999;28;20042;-57
2024/03/23 03:33:59;;;;;;;6.53;2.53;;;14.80;82.80;;;;;;5026807;28;20060;-57
2024/03/23 03:36:24;;;;;;;5.35;2.10;;;14.80;82.80;;;;;;5026760;28;20062;-58
2024/03/23 03:38:50;;;;;;;4.97;2.33;;;14.80;82.80;;;;;;5009237;28;20041;-58
2024/03/23 03:41:16;;;;;;;6.57;2.30;;;14.80;82.80;;;;;;5009152;28;20033;-57
2024/03/23 03:43:41;;;;;;;5.75;2.40;;;14.80;82.80;;;;;;5026797;28;20077;-57
2024/03/23 03:46:08;;;;;;;7.88;2.00;;;14.80;82.70;;;;;;5026693;28;20353;-57
2024/03/23 03:48:33;;;;;;;5.78;2.33;;;14.80;82.70;;;;;;5026652;28;20472;-58
2024/03/23 03:50:59;;;;;;;3.83;1.90;;;14.80;82.70;;;;;;5008877;28;20044;-57
2024/03/23 03:53:25;;;;;;;5.78;2.30;;;14.80;82.70;;;;;;5008638;28;20037;-58
2024/03/23 03:55:50;;;;;;;4.53;1.70;;;14.80;82.70;;;;;;5008642;28;20049;-57
2024/03/23 03:58:16;;;;;;;3.75;1.90;;;14.80;82.60;;;;;;4992457;28;20029;-57
2024/03/23 04:00:42;;;;;;;3.30;1.75;;;14.80;82.70;;;;;;4992302;28;20043;-58
2024/03/23 04:03:07;;;;;;;5.13;2.20;;;14.80;82.80;;;;;;5008555;28;20038;-58
2024/03/23 04:05:33;;;;;;;6.68;2.22;;;14.80;82.60;;;;;;5008571;28;20018;-57
2024/03/23 04:07:58;;;;;;;5.05;1.80;;;14.80;82.60;;;;;;5026179;28;20041;-57
2024/03/23 04:10:24;;;;;;;4.68;1.95;;;14.80;82.70;;;;;;5008461;28;20026;-58
2024/03/23 04:12:50;;;;;;;4.32;1.80;;;14.80;82.60;;;;;;5024769;28;20033;-58
2024/03/23 04:15:16;;;;;;;3.97;1.75;;;14.80;82.50;;;;;;5024794;28;20049;-58
2024/03/23 04:17:42;;;;;;;4.93;1.95;;;14.70;82.40;;;;;;5026363;28;20445;-57
2024/03/23 04:20:10;;;;;;;2.53;1.63;;;14.70;82.40;;;;;;5008220;28;20026;-57
2024/03/23 04:22:40;;;;;;;3.30;1.70;;;14.70;82.50;;;;;;5024575;28;20089;-57
2024/03/23 04:25:10;;;;;;;4.05;1.90;;;14.70;82.60;;;;;;5007857;28;20030;-57
2024/03/23 04:27:36;;;;;;;5.35;2.05;;;14.70;82.60;;;;;;4992560;28;20038;-57
2024/03/23 04:30:04;;;;;;;3.25;1.73;;;14.70;82.50;;;;;;5008255;28;20022;-57
2024/03/23 04:32:30;;;;;;;2.65;1.48;;;14.70;82.60;;;;;;5008381;28;20061;-58
2024/03/23 04:34:56;;;;;;;4.03;1.60;;;14.70;82.60;;;;;;5008064;28;20026;-57
2024/03/23 04:37:21;;;;;;;7.25;1.77;;;14.60;83.30;;;;;;5008123;28;20518;-57
2024/03/23 04:39:47;;;;;;;5.03;1.73;;;14.70;82.70;;;;;;5007781;28;20037;-57
2024/03/23 04:42:15;;;;;;;3.20;1.45;;;14.70;82.80;;;;;;4991481;28;20038;-58
2024/03/23 04:44:40;;;;;;;4.90;1.70;;;14.60;82.70;;;;;;5007759;28;20383;-57
2024/03/23 04:47:06;;;;;;;5.05;1.90;;;14.60;82.70;;;;;;5024069;28;20073;-57
2024/03/23 04:49:31;;;;;;;2.88;1.40;;;14.70;82.80;;;;;;5007780;28;20029;-57
2024/03/23 04:51:58;;;;;;;4.38;1.92;;;14.60;82.90;;;;;;5024117;28;20157;-57
2024/03/23 04:54:24;;;;;;;3.00;1.80;;;14.60;82.80;;;;;;5007603;28;20208;-57
2024/03/23 04:56:49;;;;;;;6.00;1.48;;;14.60;82.90;;;;;;5007720;28;20421;-57
2024/03/23 04:59:15;;;;;;;2.55;1.70;;;14.60;82.90;;;;;;5023832;28;20030;-58
2024/03/23 05:01:42;;;;;;;9.70;1.92;;;14.60;83.00;;;;;;4991241;28;20081;-57
2024/03/23 05:04:08;;;;;;;4.38;1.52;;;14.60;83.00;;;;;;5007754;28;20030;-57
2024/03/23 05:06:34;;;;;;;5.65;1.63;;;14.60;83.00;;;;;;5007889;28;20034;-58
2024/03/23 05:09:01;;;;;;;3.05;1.70;;;14.50;83.40;;;;;;4991117;28;20076;-57
2024/03/23 05:11:27;;;;;;;3.30;1.30;;;14.60;83.10;;;;;;5007770;28;20281;-57
2024/03/23 05:13:52;;;;;;;3.08;1.80;;;14.60;83.10;;;;;;5007222;28;20026;-57
2024/03/23 05:16:18;;;;;;;2.55;1.25;;;14.60;83.10;;;;;;5007199;28;20030;-58
2024/03/23 05:18:43;;;;;;;2.70;1.58;;;14.60;83.10;;;;;;5025049;28;20034;-57
2024/03/23 05:21:09;;;;;;;2.30;1.40;;;14.50;83.00;;;;;;5007024;28;20087;-57
2024/03/23 05:23:35;;;;;;;5.35;1.40;;;14.60;83.10;;;;;;5024901;28;20034;-58
2024/03/23 05:26:00;;;;;;;2.42;1.40;;;14.60;82.90;;;;;;5007155;28;20030;-58
2024/03/23 05:28:26;;;;;;;4.07;1.58;;;14.50;82.90;;;;;;4990627;28;20065;-58
2024/03/23 05:30:55;;;;;;;3.20;1.42;;;14.60;82.90;;;;;;5023771;28;20026;-58
2024/03/23 05:33:20;;;;;;;3.45;1.60;;;14.50;82.90;;;;;;4990518;28;20025;-58
2024/03/23 05:35:47;;;;;;;2.85;1.50;;;14.50;83.10;;;;;;5006553;28;20468;-58
2024/03/23 05:38:13;;;;;;;9.13;1.60;;;14.50;83.90;;;;;;5023348;28;20026;-58
2024/03/23 05:40:40;;;;;;;4.68;1.60;;;14.50;84.70;;;;;;4990408;28;20033;-58
2024/03/23 05:43:11;;;;;;;2.10;1.38;;;14.50;84.70;;;;;;5006910;28;20022;-58
2024/03/23 05:45:37;;;;;;;3.13;1.60;;;14.50;84.80;;;;;;5007252;28;20253;-60
2024/03/23 05:48:03;;;;;;;6.80;1.48;;;14.50;84.90;;;;;;5024497;28;20109;-58
2024/03/23 05:50:28;;;;;;;4.65;1.48;;;14.50;85.10;;;;;;5007055;28;20033;-60
2024/03/23 05:52:54;;;;;;;4.00;1.60;;;14.50;85.60;;;;;;5024169;28;20044;-58
2024/03/23 05:55:19;;;;;;;5.72;1.70;;;14.40;85.50;;;;;;5006638;28;20456;-59
2024/03/23 05:57:45;;;;;;;3.70;1.50;;;14.40;85.80;;;;;;5006633;28;20108;-59
2024/03/23 06:00:16;;;;;;;2.42;1.45;;;14.40;86.10;;;;;;5023937;28;20060;-58
2024/03/23 06:02:44;;;;;;;4.90;1.52;;;14.40;86.50;;;;;;5024180;28;20588;-59
2024/03/23 06:05:12;;;;;;;5.90;2.17;;;14.40;86.80;;;;;;5024272;28;20030;-58
2024/03/23 06:07:38;;;;;;;4.18;1.42;;;14.40;87.20;;;;;;5039156;28;20045;-58
2024/03/23 06:10:07;;;;;;;3.15;1.38;;;14.40;87.30;;;;;;5006409;28;20018;-58
2024/03/23 06:12:32;;;;;;;2.95;1.50;;;14.30;87.70;;;;;;5024178;28;20060;-58
2024/03/23 06:14:58;;;;;;;3.10;1.70;;;14.30;87.90;;;;;;5006433;28;20026;-58
2024/03/23 06:17:23;;;;;;;4.65;1.55;;;14.40;88.20;;;;;;5006512;28;20117;-58
2024/03/23 06:19:49;;;;;;;3.33;1.58;;;14.30;88.40;;;;;;5006382;28;20041;-58
2024/03/23 06:22:15;;;;;;;3.45;1.60;;;14.30;88.60;;;;;;5023389;28;20118;-58
2024/03/23 06:24:41;;;;;;;7.68;1.98;;;14.30;88.70;;;;;;4973813;28;20113;-58
2024/03/23 06:27:06;;;;;;;7.07;2.22;;;14.30;89.20;;;;;;5022735;28;20107;-58
2024/03/23 06:29:32;;;;;;;6.32;2.10;;;14.30;90.10;;;;;;5022512;28;20449;-58
2024/03/23 06:31:57;;;;;;;6.05;2.63;;;14.30;90.20;;;;;;5039208;28;20449;-58
2024/03/23 06:34:23;;;;;;;5.95;2.50;;;14.20;90.60;;;;;;5022773;28;20058;-58
2024/03/23 06:36:49;;;;;;;8.02;2.75;;;14.20;90.80;;;;;;5039066;28;20038;-58
2024/03/23 06:39:15;;;;;;;13.45;2.85;;;14.20;91.00;;;;;;5038150;28;20460;-58
2024/03/23 06:41:42;;;;;;;10.48;3.15;;;14.10;91.10;;;;;;5021772;28;20061;-58
2024/03/23 06:44:08;;;;;;;8.07;2.80;;;14.10;91.20;;;;;;5023755;28;20021;-58
2024/03/23 06:46:34;;;;;;;9.98;3.00;;;14.20;91.20;;;;;;5022406;28;20029;-58
2024/03/23 06:48:59;;;;;;;10.02;2.78;;;14.20;91.20;;;;;;5041698;28;20032;-58
2024/03/23 06:51:25;;;;;;;13.02;3.03;;;14.10;91.20;;;;;;5027642;28;20061;-58
2024/03/23 06:53:50;;;;;;;5.60;2.63;;;14.10;91.20;;;;;;5009625;28;20034;-58
2024/03/23 06:56:16;;;;;;;7.82;3.00;;;14.20;91.40;;;;;;5027648;28;20034;-58
2024/03/23 06:58:42;;;;;;;11.73;2.72;;;14.20;91.40;;;;;;5027608;28;20121;-58
2024/03/23 07:01:07;;;;;;;11.65;2.90;;;14.10;91.50;;;;;;5025991;28;20044;-58
2024/03/23 07:03:33;;;;;;;5.35;2.50;;;14.10;91.50;;;;;;5042647;28;20057;-58
2024/03/23 07:05:59;;;;;;;9.98;3.28;;;14.10;91.60;;;;;;5009674;28;20042;-58
2024/03/23 07:08:24;;;;;;;7.63;2.50;;;14.10;91.60;;;;;;5025680;28;20113;-58
2024/03/23 07:10:50;;;;;;;9.77;2.90;;;14.10;91.70;;;;;;5026169;28;20365;-58
2024/03/23 07:13:17;;;;;;;7.25;2.72;;;14.00;91.70;;;;;;5025878;28;20479;-58
2024/03/23 07:15:42;;;;;;;7.38;2.88;;;14.10;91.80;;;;;;5042239;28;20034;-58
2024/03/23 07:18:08;;;;;;;4.70;2.40;;;14.00;91.90;;;;;;5027113;28;20106;-58
2024/03/23 07:20:34;;;;;;;5.90;2.35;;;14.00;91.90;;;;;;5042304;28;20033;-58
2024/03/23 07:22:59;;;;;;;4.45;2.30;;;14.00;91.90;;;;;;5042359;28;20041;-59
2024/03/23 07:25:26;;;;;;;6.80;2.05;;;14.00;92.00;;;;;;5042127;28;20460;-58
2024/03/23 07:27:53;;;;;;;15.50;2.92;;;14.00;92.00;;;;;;5042007;28;20105;-58
2024/03/23 07:30:19;;;;;;;15.18;2.90;;;14.00;92.00;;;;;;5042008;28;20042;-58
2024/03/23 07:32:45;;;;;;;11.00;2.60;;;13.90;92.00;;;;;;5025567;28;20126;-58
2024/03/23 07:35:10;;;;;;;13.15;2.70;;;14.00;92.00;;;;;;5027111;28;20479;-58
2024/03/23 07:37:36;;;;;;;9.45;2.17;;;13.90;91.90;;;;;;5009177;28;20030;-58
2024/03/23 07:40:02;;;;;;;4.82;2.40;;;13.90;91.90;;;;;;5042275;28;20026;-59
2024/03/23 07:42:29;;;;;;;15.85;3.10;;;13.90;91.90;;;;;;5041737;28;20034;-58
2024/03/23 07:44:56;;;;;;;13.90;2.67;;;13.90;91.90;;;;;;5026589;28;20088;-58
2024/03/23 07:47:22;;;;;;;12.45;2.45;;;13.90;91.90;;;;;;5024873;28;20045;-58
2024/03/23 07:49:48;;;;;;;8.80;2.33;;;13.90;91.90;;;;;;5025100;28;20034;-58
2024/03/23 07:52:14;;;;;;;15.85;3.05;;;13.90;92.10;;;;;;5025431;28;20401;-58
2024/03/23 07:54:39;;;;;;;29.65;4.22;;;13.90;91.80;;;;;;5026349;28;20061;-58
2024/03/23 07:57:06;;;;;;;25.25;3.03;;;13.90;92.00;;;;;;5041770;28;20029;-58
2024/03/23 07:59:33;;;;;;;26.17;3.08;;;13.90;92.00;;;;;;5008563;28;20052;-58
2024/03/23 08:01:59;;;;;;;19.77;2.83;;;13.90;91.90;;;;;;5024950;28;20098;-58
2024/03/23 08:04:25;;;;;;;21.80;2.92;;;13.80;91.90;;;;;;5024711;28;20208;-58
2024/03/23 08:06:51;;;;;;;19.48;2.22;;;13.80;91.80;;;;;;5025038;28;20125;-58
2024/03/23 08:09:16;;;;;;;15.18;2.25;;;13.70;91.60;;;;;;5026226;28;20448;-58
2024/03/23 08:11:45;;;;;;;28.17;3.65;;;13.60;91.50;;;;;;5041625;28;20026;-58
2024/03/23 08:14:10;;;;;;;20.73;2.60;;;13.60;91.40;;;;;;5026273;28;20040;-58
2024/03/23 08:16:36;;;;;;;17.60;3.20;;;13.60;91.20;;;;;;5041322;28;20046;-58
2024/03/23 08:19:03;;;;;;;10.57;2.10;;;13.60;91.10;;;;;;5041239;28;20030;-58
2024/03/23 08:21:29;;;;;;;14.82;2.47;;;13.50;90.90;;;;;;5040914;28;20030;-58
2024/03/23 08:23:54;;;;;;;14.60;2.25;;;13.40;90.80;;;;;;5025917;28;20057;-58
2024/03/23 08:26:20;;;;;;;16.80;2.03;;;13.40;90.80;;;;;;5026067;28;20044;-58
2024/03/23 08:28:46;;;;;;;23.33;2.33;;;13.40;90.80;;;;;;5008101;28;20037;-58
2024/03/23 08:31:12;;;;;;;8.10;1.42;;;13.30;90.60;;;;;;5041064;28;20022;-58
2024/03/23 08:33:38;;;;;;;9.85;1.50;;;13.30;90.50;;;;;;5040984;28;20476;-58
2024/03/23 08:36:05;;;;;;;10.40;2.17;;;13.30;90.40;;;;;;5024221;28;20025;-58
2024/03/23 08:38:31;;;;;;;18.77;2.65;;;13.30;90.40;;;;;;5025690;28;20072;-58
2024/03/23 08:41:03;;;;;;;10.45;2.22;;;13.30;90.20;;;;;;5024208;28;20045;-58
2024/03/23 08:43:30;;;;;;;7.88;1.75;;;13.30;90.10;;;;;;5040582;28;20022;-58
2024/03/23 08:46:13;;;;;;;9.75;1.70;;;13.30;90.00;;;;;;5040714;28;20037;-58
2024/03/23 08:48:39;;;;;;;13.98;1.88;;;13.30;89.50;;;;;;5039287;28;20018;-58
2024/03/23 08:51:06;;;;;;;12.38;1.48;;;13.30;89.20;;;;;;5023912;28;20037;-58
2024/03/23 08:53:32;;;;;;;9.95;1.52;;;13.30;88.80;;;;;;5040153;28;20088;-58
2024/03/23 08:55:58;;;;;;;13.18;1.58;;;13.30;88.80;;;;;;5024163;28;20034;-58
2024/03/23 08:58:24;;;;;;;7.57;1.70;;;13.20;88.10;;;;;;5040375;28;20161;-58
2024/03/23 09:00:51;;;;;;;4.68;1.52;;;13.20;87.50;;;;;;5039673;28;20469;-58
2024/03/23 09:03:16;;;;;;;9.75;1.90;;;13.20;87.20;;;;;;4991281;28;20097;-58
2024/03/23 09:05:42;;;;;;;6.80;1.38;;;13.20;86.70;;;;;;5007512;28;20026;-58
2024/03/23 09:08:08;;;;;;;4.80;1.75;;;13.10;86.40;;;;;;5007086;28;20073;-58
2024/03/23 09:10:40;;;;;;;10.27;1.80;;;13.10;85.90;;;;;;5005006;28;20026;-58
2024/03/23 09:13:06;;;;;;;5.82;1.45;;;13.10;85.80;;;;;;5035762;28;20030;-58
2024/03/23 09:15:34;;;;;;;11.68;2.33;;;13.10;85.60;;;;;;5005785;28;20046;-58
2024/03/23 09:18:00;;;;;;;12.40;2.13;;;13.00;85.30;;;;;;5023511;28;20502;-58
2024/03/23 09:20:25;;;;;;;15.10;2.90;;;13.00;85.40;;;;;;5003692;28;20030;-58
2024/03/23 09:22:51;;;;;;;9.82;1.95;;;13.00;85.60;;;;;;5017348;28;20468;-58
2024/03/23 09:25:17;;;;;;;13.13;2.05;;;13.00;85.40;;;;;;5004478;28;20026;-58
2024/03/23 09:27:42;;;;;;;13.23;2.33;;;13.00;84.80;;;;;;5020089;28;20429;-58
2024/03/23 09:30:10;;;;;;;24.95;2.83;;;13.00;84.50;;;;;;5039434;28;20080;-58
2024/03/23 09:32:35;;;;;;;15.25;2.45;;;13.10;84.50;;;;;;5005787;28;20057;-58
2024/03/23 09:35:01;;;;;;;12.20;2.33;;;13.10;84.40;;;;;;5004666;28;20022;-58
2024/03/23 09:37:26;;;;;;;25.35;3.28;;;13.10;84.20;;;;;;5024395;28;20030;-58
2024/03/23 09:39:52;;;;;;;30.48;4.70;;;13.10;84.20;;;;;;5005876;28;20377;-57
2024/03/23 09:42:18;;;;;;;24.27;3.70;;;13.10;84.50;;;;;;4988583;28;20461;-58
2024/03/23 09:44:44;;;;;;;32.72;4.15;;;13.20;84.20;;;;;;5023840;28;20026;-58
2024/03/23 09:47:09;;;;;;;31.13;3.85;;;13.10;83.80;;;;;;4990134;28;20121;-58
2024/03/23 09:49:37;;;;;;;91.90;9.88;;;13.10;83.60;;;;;;4989318;28;20017;-58
2024/03/23 09:52:04;;;;;;;49.38;5.10;;;13.10;83.60;;;;;;5002382;28;20133;-58
2024/03/23 09:54:30;;;;;;;34.08;4.45;;;13.10;83.50;;;;;;5029153;28;20036;-58
2024/03/23 09:56:55;;;;;;;31.65;4.53;;;13.00;83.00;;;;;;4992695;28;20033;-58
2024/03/23 09:59:21;;;;;;;72.47;7.97;;;13.00;82.60;;;;;;4979608;28;20036;-58
2024/03/23 10:01:46;;;;;;;79.32;9.82;;;13.00;82.60;;;;;;5038894;28;20038;-58
2024/03/23 10:04:32;;;;;;;160.98;17.40;;;13.00;82.90;;;;;;5038878;28;20037;-58
2024/03/23 10:07:11;;;;;;;135.73;12.32;;;13.00;83.20;;;;;;5000420;28;20022;-58
2024/03/23 10:09:37;;;;;;;231.38;23.30;;;13.00;83.20;;;;;;4990106;28;20029;-58
2024/03/23 10:12:16;;;;;;;137.35;14.18;;;13.10;83.30;;;;;;5006230;28;20030;-58
2024/03/23 10:14:41;;;;;;;95.97;10.88;;;13.00;82.70;;;;;;5006620;28;20026;-58
2024/03/23 10:17:14;;;;;;;125.82;13.57;;;13.00;82.90;;;;;;5037258;28;20056;-58
2024/03/23 10:19:42;;;;;;;94.57;12.20;;;13.00;83.10;;;;;;5004850;28;20129;-58
2024/03/23 10:22:08;;;;;;;168.40;15.40;;;13.10;82.80;;;;;;5005407;28;20030;-58
2024/03/23 10:24:34;;;;;;;136.95;13.68;;;13.10;82.40;;;;;;5005389;28;20089;-58
2024/03/23 10:26:59;;;;;;;107.03;13.15;;;13.10;82.20;;;;;;5004683;28;20511;-58
2024/03/23 10:29:27;;;;;;;157.48;16.13;;;13.10;82.40;;;;;;5023777;28;20061;-58
2024/03/23 10:31:53;;;;;;;141.85;14.45;;;13.10;82.60;;;;;;4989822;28;20133;-58
2024/03/23 10:34:25;;;;;;;163.25;18.55;;;13.10;82.50;;;;;;5006390;28;20064;-58
2024/03/23 10:36:52;;;;;;;198.90;19.25;;;13.10;82.50;;;;;;5004459;28;20089;-58
2024/03/23 10:39:17;;;;;;;218.35;22.08;;;13.20;82.20;;;;;;5005775;28;20062;-58
2024/03/23 10:41:43;;;;;;;238.00;25.38;;;13.20;82.60;;;;;;5005916;28;20254;-58
2024/03/23 10:44:09;;;;;;;187.07;19.55;;;13.20;83.00;;;;;;4986331;28;20089;-58
2024/03/23 10:46:34;;;;;;;170.52;17.40;;;13.30;82.70;;;;;;5005184;28;20456;-58
2024/03/23 10:49:00;;;;;;;182.00;18.15;;;13.30;81.80;;;;;;5005568;28;20110;-58
2024/03/23 10:51:26;;;;;;;164.18;16.90;;;13.30;81.40;;;;;;5005142;28;20040;-58
2024/03/23 10:53:51;;;;;;;148.10;17.00;;;13.40;81.10;;;;;;4986043;28;20124;-57
2024/03/23 10:56:17;;;;;;;156.55;16.15;;;13.40;81.10;;;;;;4985150;28;20129;-58
2024/03/23 10:58:45;;;;;;;152.15;17.92;;;13.40;81.30;;;;;;5003553;28;20042;-58
2024/03/23 11:01:12;;;;;;;207.73;20.85;;;13.40;81.00;;;;;;5022532;28;20026;-58
2024/03/23 11:03:38;;;;;;;170.27;17.85;;;13.40;81.20;;;;;;4989457;28;20079;-58
2024/03/23 11:06:04;;;;;;;175.32;16.95;;;13.50;81.00;;;;;;5005665;28;20034;-58
2024/03/23 11:08:37;;;;;;;148.02;14.00;;;13.50;80.70;;;;;;4989478;28;20041;-57
2024/03/23 11:11:17;;;;;;;228.15;20.38;;;13.60;80.70;;;;;;5005692;28;20100;-58
2024/03/23 11:13:43;;;;;;;202.02;21.15;;;13.50;80.40;;;;;;5005718;28;20034;-58
2024/03/23 11:16:27;;;;;;;209.48;22.17;;;13.60;80.20;;;;;;4989469;28;20034;-58
2024/03/23 11:18:53;;;;;;;169.35;18.25;;;13.60;79.50;;;;;;5011120;28;20033;-58
2024/03/23 11:21:55;;;;;;;171.63;17.30;;;13.60;79.70;;;;;;5032152;28;20041;-58
2024/03/23 11:24:22;;;;;;;178.75;18.77;;;13.60;79.30;;;;;;5005477;28;20357;-58
2024/03/23 11:26:48;;;;;;;182.05;20.08;;;13.70;79.30;;;;;;5005321;28;20030;-58
2024/03/23 11:29:17;;;;;;;150.18;17.92;;;13.70;79.20;;;;;;5022769;28;20044;-58
2024/03/23 11:31:51;;;;;;;212.57;23.30;;;13.70;79.10;;;;;;5008942;28;20165;-58
2024/03/23 11:34:17;;;;;;;178.38;18.27;;;13.70;78.10;;;;;;5010153;28;20041;-58
2024/03/23 11:36:43;;;;;;;104.82;13.35;;;13.70;77.80;;;;;;5026568;28;20034;-58
2024/03/23 11:39:16;;;;;;;105.55;11.80;;;13.70;77.50;;;;;;4990813;28;20026;-58
2024/03/23 11:41:56;;;;;;;129.00;13.75;;;13.70;77.00;;;;;;5013516;28;20045;-58
2024/03/23 11:44:23;;;;;;;138.32;14.68;;;13.70;77.30;;;;;;5027582;28;20018;-58
2024/03/23 11:46:49;;;;;;;139.55;15.48;;;13.70;76.80;;;;;;4976230;28;20117;-58
2024/03/23 11:49:21;;;;;;;187.93;19.15;;;13.60;76.70;;;;;;5008603;28;20034;-58
2024/03/23 11:51:48;;;;;;;201.80;20.83;;;13.70;77.20;;;;;;5023229;28;20081;-58
2024/03/23 11:54:13;;;;;;;137.70;15.27;;;13.70;76.90;;;;;;5018862;28;20083;-58
2024/03/23 11:56:39;;;;;;;124.93;15.13;;;13.70;75.90;;;;;;4998971;28;20034;-58
2024/03/23 11:59:05;;;;;;;137.40;15.95;;;13.70;76.00;;;;;;4991060;28;20121;-58
2024/03/23 12:01:43;;;;;;;148.57;16.70;;;13.70;76.00;;;;;;4992872;28;20125;-58
2024/03/23 12:04:08;;;;;;;132.25;14.60;;;13.80;75.60;;;;;;5006551;28;20119;-58
2024/03/23 12:06:35;;;;;;;149.55;15.45;;;13.80;75.50;;;;;;5027712;28;20034;-58
2024/03/23 12:09:06;;;;;;;122.13;14.07;;;13.80;75.20;;;;;;5008671;28;20033;-58
2024/03/23 12:11:32;;;;;;;130.60;15.30;;;13.80;74.90;;;;;;5010313;28;20061;-58
2024/03/23 12:13:59;;;;;;;217.88;23.42;;;13.80;75.00;;;;;;4987525;28;20041;-59
2024/03/23 12:16:27;;;;;;;146.52;14.27;;;13.90;75.10;;;;;;5010736;28;20041;-58
2024/03/23 12:18:53;;;;;;;86.32;11.18;;;13.90;74.40;;;;;;4996756;28;20025;-58
2024/03/23 12:21:18;;;;;;;111.45;12.88;;;13.90;73.50;;;;;;5028587;28;20080;-58
2024/03/23 12:23:44;;;;;;;225.20;22.40;;;13.90;73.20;;;;;;5016311;28;20025;-58
2024/03/23 12:26:11;;;;;;;194.70;21.63;;;13.90;74.00;;;;;;5045326;28;20447;-58
2024/03/23 12:28:37;;;;;;;137.55;14.77;;;13.90;74.60;;;;;;5027712;28;20036;-58
2024/03/23 12:31:03;;;;;;;123.47;14.00;;;13.90;74.70;;;;;;4997457;28;20038;-58
2024/03/23 12:33:29;;;;;;;154.65;15.40;;;13.90;74.90;;;;;;4990651;28;20030;-58
2024/03/23 12:35:54;;;;;;;108.35;13.63;;;13.90;75.20;;;;;;5008110;28;20038;-58